sensor_id;sensor_type;location;lat;lon;timestamp;temperature;humidity
2897;DHT22;1458;49.728;9.228;2023-02-01T00:00:01;5.60;99.90
2897;DHT22;1458;49.728;9.228;2023-02-01T00:02:31;5.50;99.90
2897;DHT22;1458;49.728;9.228;2023-02-01T00:04:59;5.60;99.90
2897;DHT22;1458;49.728;9.228;2023-02-01T00:07:27;5.60;99.90
2897;DHT22;1458;49.728;9.228;2023-02-01T00:09:54;5.60;99.90
2897;DHT22;1458;49.728;9.228;2023-02-01T00:12:21;5.60;99.90
2897;DHT22;1458;49.728;9.228;2023-02-01T00:14:49;5.60;99.90
2897;DHT22;1458;49.728;9.228;2023-02-01T00:17:16;5.70;99.90
2897;DHT22;1458;49.728;9.228;2023-02-01T00:19:44;5.70;99.90
2897;DHT22;1458;49.728;9.228;2023-02-01T00:22:13;5.70;99.90
2897;DHT22;1458;49.728;9.228;2023-02-01T00:24:40;5.70;99.90
2897;DHT22;1458;49.728;9.228;2023-02-01T00:27:07;5.80;99.90
2897;DHT22;1458;49.728;9.228;2023-02-01T00:29:35;5.90;99.90
2897;DHT22;1458;49.728;9.228;2023-02-01T00:32:03;5.90;99.90
2897;DHT22;1458;49.728;9.228;2023-02-01T00:34:31;5.90;99.90
2897;DHT22;1458;49.728;9.228;2023-02-01T00:36:58;5.90;99.90
2897;DHT22;1458;49.728;9.228;2023-02-01T00:39:27;6.00;99.90
2897;DHT22;1458;49.728;9.228;2023-02-01T00:41:54;6.00;99.90
2897;DHT22;1458;49.728;9.228;2023-02-01T00:44:22;6.00;99.90
2897;DHT22;1458;49.728;9.228;2023-02-01T00:46:49;6.00;99.90
2897;DHT22;1458;49.728;9.228;2023-02-01T00:49:16;6.00;99.90
2897;DHT22;1458;49.728;9.228;2023-02-01T00:51:44;6.00;99.90
2897;DHT22;1458;49.728;9.228;2023-02-01T00:54:11;5.90;99.90
2897;DHT22;1458;49.728;9.228;2023-02-01T00:56:40;6.00;99.90
2897;DHT22;1458;49.728;9.228;2023-02-01T00:59:10;6.00;99.90
2897;DHT22;1458;49.728;9.228;2023-02-01T01:01:38;5.90;99.90
2897;DHT22;1458;49.728;9.228;2023-02-01T01:04:05;5.90;99.90
2897;DHT22;1458;49.728;9.228;2023-02-01T01:06:34;5.80;99.90
2897;DHT22;1458;49.728;9.228;2023-02-01T01:09:04;5.80;99.90
2897;DHT22;1458;49.728;9.228;2023-02-01T01:11:35;5.70;99.90
2897;DHT22;1458;49.728;9.228;2023-02-01T01:14:09;5.70;99.90
2897;DHT22;1458;49.728;9.228;2023-02-01T01:16:36;5.60;99.90
2897;DHT22;1458;49.728;9.228;2023-02-01T01:19:04;5.50;99.90
2897;DHT22;1458;49.728;9.228;2023-02-01T01:21:31;5.50;99.90
2897;DHT22;1458;49.728;9.228;2023-02-01T01:23:59;5.50;99.90
2897;DHT22;1458;49.728;9.228;2023-02-01T01:26:27;5.50;99.90
2897;DHT22;1458;49.728;9.228;2023-02-01T01:28:56;5.50;99.90
2897;DHT22;1458;49.728;9.228;2023-02-01T01:31:25;5.50;99.90
2897;DHT22;1458;49.728;9.228;2023-02-01T01:33:55;5.50;99.90
2897;DHT22;1458;49.728;9.228;2023-02-01T01:56:58;5.30;99.90
2897;DHT22;1458;49.728;9.228;2023-02-01T01:59:29;5.30;99.90
2897;DHT22;1458;49.728;9.228;2023-02-01T02:01:56;5.30;99.90
2897;DHT22;1458;49.728;9.228;2023-02-01T02:04:25;5.30;99.90
2897;DHT22;1458;49.728;9.228;2023-02-01T02:10:56;5.50;99.90
2897;DHT22;1458;49.728;9.228;2023-02-01T02:13:29;5.60;99.90
2897;DHT22;1458;49.728;9.228;2023-02-01T02:16:41;5.60;99.90
2897;DHT22;1458;49.728;9.228;2023-02-01T02:26:35;5.80;99.90
2897;DHT22;1458;49.728;9.228;2023-02-01T02:29:49;5.80;99.90
2897;DHT22;1458;49.728;9.228;2023-02-01T02:36:10;5.70;99.90
2897;DHT22;1458;49.728;9.228;2023-02-01T02:38:49;5.70;99.90
2897;DHT22;1458;49.728;9.228;2023-02-01T02:41:22;5.70;99.90
2897;DHT22;1458;49.728;9.228;2023-02-01T02:44:13;5.60;99.90
2897;DHT22;1458;49.728;9.228;2023-02-01T02:47:08;5.70;99.90
2897;DHT22;1458;49.728;9.228;2023-02-01T02:49:59;5.70;99.90
2897;DHT22;1458;49.728;9.228;2023-02-01T02:52:54;5.60;99.90
2897;DHT22;1458;49.728;9.228;2023-02-01T02:55:43;5.70;99.90
2897;DHT22;1458;49.728;9.228;2023-02-01T02:58:13;5.70;99.90
2897;DHT22;1458;49.728;9.228;2023-02-01T03:00:59;5.70;99.90
2897;DHT22;1458;49.728;9.228;2023-02-01T03:03:47;5.70;99.90
2897;DHT22;1458;49.728;9.228;2023-02-01T03:06:39;5.60;99.90
2897;DHT22;1458;49.728;9.228;2023-02-01T03:09:12;5.60;99.90
2897;DHT22;1458;49.728;9.228;2023-02-01T03:11:44;5.60;99.90
2897;DHT22;1458;49.728;9.228;2023-02-01T03:14:33;5.50;99.90
2897;DHT22;1458;49.728;9.228;2023-02-01T03:17:08;5.70;99.90
2897;DHT22;1458;49.728;9.228;2023-02-01T03:19:40;5.70;99.90
2897;DHT22;1458;49.728;9.228;2023-02-01T03:22:18;5.80;99.90
2897;DHT22;1458;49.728;9.228;2023-02-01T03:24:49;5.70;99.90
2897;DHT22;1458;49.728;9.228;2023-02-01T03:27:21;5.60;99.90
2897;DHT22;1458;49.728;9.228;2023-02-01T03:29:56;5.70;99.90
2897;DHT22;1458;49.728;9.228;2023-02-01T03:32:28;5.70;99.90
2897;DHT22;1458;49.728;9.228;2023-02-01T03:35:16;5.60;99.90
2897;DHT22;1458;49.728;9.228;2023-02-01T03:37:46;5.80;99.90
2897;DHT22;1458;49.728;9.228;2023-02-01T03:40:16;5.70;99.90
2897;DHT22;1458;49.728;9.228;2023-02-01T03:42:48;5.70;99.90
2897;DHT22;1458;49.728;9.228;2023-02-01T03:45:23;5.70;99.90
2897;DHT22;1458;49.728;9.228;2023-02-01T03:47:56;5.60;99.90
2897;DHT22;1458;49.728;9.228;2023-02-01T03:50:27;5.50;99.90
2897;DHT22;1458;49.728;9.228;2023-02-01T03:53:01;5.50;99.90
2897;DHT22;1458;49.728;9.228;2023-02-01T03:55:31;5.40;99.90
2897;DHT22;1458;49.728;9.228;2023-02-01T03:58:02;5.30;99.90
2897;DHT22;1458;49.728;9.228;2023-02-01T04:00:33;5.20;99.90
2897;DHT22;1458;49.728;9.228;2023-02-01T04:03:02;5.00;99.90
2897;DHT22;1458;49.728;9.228;2023-02-01T04:05:31;4.80;99.90
2897;DHT22;1458;49.728;9.228;2023-02-01T04:08:04;4.80;99.90
2897;DHT22;1458;49.728;9.228;2023-02-01T04:10:31;4.70;99.90
2897;DHT22;1458;49.728;9.228;2023-02-01T04:12:59;4.70;99.90
2897;DHT22;1458;49.728;9.228;2023-02-01T04:15:26;4.60;99.90
2897;DHT22;1458;49.728;9.228;2023-02-01T04:17:53;4.60;99.90
2897;DHT22;1458;49.728;9.228;2023-02-01T04:20:21;4.80;99.90
2897;DHT22;1458;49.728;9.228;2023-02-01T04:22:48;4.80;99.90
2897;DHT22;1458;49.728;9.228;2023-02-01T04:25:17;4.80;99.90
2897;DHT22;1458;49.728;9.228;2023-02-01T04:27:46;4.70;99.90
2897;DHT22;1458;49.728;9.228;2023-02-01T04:30:14;4.70;99.90
2897;DHT22;1458;49.728;9.228;2023-02-01T04:32:41;4.60;99.90
2897;DHT22;1458;49.728;9.228;2023-02-01T04:35:09;4.60;99.90
2897;DHT22;1458;49.728;9.228;2023-02-01T04:37:37;4.50;99.90
2897;DHT22;1458;49.728;9.228;2023-02-01T04:40:05;4.70;99.90
2897;DHT22;1458;49.728;9.228;2023-02-01T04:42:35;4.70;99.90
2897;DHT22;1458;49.728;9.228;2023-02-01T04:45:03;4.60;99.90
2897;DHT22;1458;49.728;9.228;2023-02-01T04:47:31;4.50;99.90
2897;DHT22;1458;49.728;9.228;2023-02-01T04:49:58;4.60;99.90
2897;DHT22;1458;49.728;9.228;2023-02-01T04:52:25;4.60;99.90
2897;DHT22;1458;49.728;9.228;2023-02-01T04:54:53;4.60;99.90
2897;DHT22;1458;49.728;9.228;2023-02-01T04:57:23;4.60;99.90
2897;DHT22;1458;49.728;9.228;2023-02-01T04:59:52;4.60;99.90
2897;DHT22;1458;49.728;9.228;2023-02-01T05:02:19;4.50;99.90
2897;DHT22;1458;49.728;9.228;2023-02-01T05:04:46;4.60;99.90
2897;DHT22;1458;49.728;9.228;2023-02-01T05:07:14;4.70;99.90
2897;DHT22;1458;49.728;9.228;2023-02-01T05:09:41;4.70;99.90
2897;DHT22;1458;49.728;9.228;2023-02-01T05:12:09;4.70;99.90
2897;DHT22;1458;49.728;9.228;2023-02-01T05:14:55;4.70;99.90
2897;DHT22;1458;49.728;9.228;2023-02-01T05:17:23;4.90;99.90
2897;DHT22;1458;49.728;9.228;2023-02-01T05:19:50;5.10;99.90
2897;DHT22;1458;49.728;9.228;2023-02-01T05:22:17;5.00;99.90
2897;DHT22;1458;49.728;9.228;2023-02-01T05:24:45;5.10;99.90
2897;DHT22;1458;49.728;9.228;2023-02-01T05:27:12;5.10;99.90
2897;DHT22;1458;49.728;9.228;2023-02-01T05:29:40;5.10;99.90
2897;DHT22;1458;49.728;9.228;2023-02-01T05:32:09;5.10;99.90
2897;DHT22;1458;49.728;9.228;2023-02-01T05:34:37;5.20;99.90
2897;DHT22;1458;49.728;9.228;2023-02-01T05:37:05;5.20;99.90
2897;DHT22;1458;49.728;9.228;2023-02-01T05:39:32;5.20;99.90
2897;DHT22;1458;49.728;9.228;2023-02-01T05:42:00;5.10;99.90
2897;DHT22;1458;49.728;9.228;2023-02-01T05:44:27;5.20;99.90
2897;DHT22;1458;49.728;9.228;2023-02-01T05:46:54;5.20;99.90
2897;DHT22;1458;49.728;9.228;2023-02-01T05:49:23;5.20;99.90
2897;DHT22;1458;49.728;9.228;2023-02-01T05:51:50;5.20;99.90
2897;DHT22;1458;49.728;9.228;2023-02-01T05:54:18;5.10;99.90
2897;DHT22;1458;49.728;9.228;2023-02-01T05:56:45;5.10;99.90
2897;DHT22;1458;49.728;9.228;2023-02-01T05:59:12;5.10;99.90
2897;DHT22;1458;49.728;9.228;2023-02-01T06:01:40;5.10;99.90
2897;DHT22;1458;49.728;9.228;2023-02-01T06:04:07;5.10;99.90
2897;DHT22;1458;49.728;9.228;2023-02-01T06:06:36;5.20;99.90
2897;DHT22;1458;49.728;9.228;2023-02-01T06:09:04;5.20;99.90
2897;DHT22;1458;49.728;9.228;2023-02-01T06:11:31;5.20;99.90
2897;DHT22;1458;49.728;9.228;2023-02-01T06:13:59;5.40;99.90
2897;DHT22;1458;49.728;9.228;2023-02-01T06:16:27;5.30;99.90
2897;DHT22;1458;49.728;9.228;2023-02-01T06:18:54;5.20;99.90
2897;DHT22;1458;49.728;9.228;2023-02-01T06:21:21;5.30;99.90
2897;DHT22;1458;49.728;9.228;2023-02-01T06:23:52;5.30;99.90
2897;DHT22;1458;49.728;9.228;2023-02-01T06:26:19;5.20;99.90
2897;DHT22;1458;49.728;9.228;2023-02-01T06:28:47;5.20;99.90
2897;DHT22;1458;49.728;9.228;2023-02-01T06:31:15;5.20;99.90
2897;DHT22;1458;49.728;9.228;2023-02-01T06:33:42;5.30;99.90
2897;DHT22;1458;49.728;9.228;2023-02-01T06:36:11;5.30;99.90
2897;DHT22;1458;49.728;9.228;2023-02-01T06:38:39;5.40;99.90
2897;DHT22;1458;49.728;9.228;2023-02-01T06:41:08;5.40;99.90
2897;DHT22;1458;49.728;9.228;2023-02-01T06:43:36;5.30;99.90
2897;DHT22;1458;49.728;9.228;2023-02-01T06:46:05;5.40;99.90
2897;DHT22;1458;49.728;9.228;2023-02-01T06:48:34;5.40;99.90
2897;DHT22;1458;49.728;9.228;2023-02-01T06:51:02;5.40;99.90
2897;DHT22;1458;49.728;9.228;2023-02-01T06:53:30;5.40;99.90
2897;DHT22;1458;49.728;9.228;2023-02-01T06:56:00;5.50;99.90
2897;DHT22;1458;49.728;9.228;2023-02-01T06:58:31;5.40;99.90
2897;DHT22;1458;49.728;9.228;2023-02-01T07:01:04;5.40;99.90
2897;DHT22;1458;49.728;9.228;2023-02-01T07:03:32;5.40;99.90
2897;DHT22;1458;49.728;9.228;2023-02-01T07:06:00;5.40;99.90
2897;DHT22;1458;49.728;9.228;2023-02-01T07:08:28;5.40;99.90
2897;DHT22;1458;49.728;9.228;2023-02-01T07:10:56;5.50;99.90
2897;DHT22;1458;49.728;9.228;2023-02-01T07:13:23;5.40;99.90
2897;DHT22;1458;49.728;9.228;2023-02-01T07:15:52;5.50;99.90
2897;DHT22;1458;49.728;9.228;2023-02-01T07:18:19;5.60;99.90
2897;DHT22;1458;49.728;9.228;2023-02-01T07:20:50;5.50;99.90
2897;DHT22;1458;49.728;9.228;2023-02-01T07:23:18;5.60;99.90
2897;DHT22;1458;49.728;9.228;2023-02-01T07:25:46;5.60;99.90
2897;DHT22;1458;49.728;9.228;2023-02-01T07:28:13;5.60;99.90
2897;DHT22;1458;49.728;9.228;2023-02-01T07:30:41;5.50;99.90
2897;DHT22;1458;49.728;9.228;2023-02-01T07:33:09;5.40;99.90
2897;DHT22;1458;49.728;9.228;2023-02-01T07:35:37;5.30;99.90
2897;DHT22;1458;49.728;9.228;2023-02-01T07:38:04;5.20;99.90
2897;DHT22;1458;49.728;9.228;2023-02-01T07:40:31;5.20;99.90
2897;DHT22;1458;49.728;9.228;2023-02-01T07:42:59;5.10;99.90
2897;DHT22;1458;49.728;9.228;2023-02-01T07:45:26;5.00;99.90
2897;DHT22;1458;49.728;9.228;2023-02-01T07:47:53;5.00;99.90
2897;DHT22;1458;49.728;9.228;2023-02-01T07:50:22;5.00;99.90
2897;DHT22;1458;49.728;9.228;2023-02-01T07:52:50;5.00;99.90
2897;DHT22;1458;49.728;9.228;2023-02-01T07:55:19;4.90;99.90
2897;DHT22;1458;49.728;9.228;2023-02-01T07:57:46;4.70;99.90
2897;DHT22;1458;49.728;9.228;2023-02-01T08:00:14;4.70;99.90
2897;DHT22;1458;49.728;9.228;2023-02-01T08:03:00;4.80;99.90
2897;DHT22;1458;49.728;9.228;2023-02-01T08:05:29;4.90;99.90
2897;DHT22;1458;49.728;9.228;2023-02-01T08:07:56;4.90;99.90
2897;DHT22;1458;49.728;9.228;2023-02-01T08:10:23;4.90;99.90
2897;DHT22;1458;49.728;9.228;2023-02-01T08:12:51;5.00;99.90
2897;DHT22;1458;49.728;9.228;2023-02-01T08:15:18;5.00;99.90
2897;DHT22;1458;49.728;9.228;2023-02-01T08:17:46;5.10;99.90
2897;DHT22;1458;49.728;9.228;2023-02-01T08:20:14;5.10;99.90
2897;DHT22;1458;49.728;9.228;2023-02-01T08:22:43;5.20;99.90
2897;DHT22;1458;49.728;9.228;2023-02-01T08:25:11;5.20;99.90
2897;DHT22;1458;49.728;9.228;2023-02-01T08:27:38;5.40;99.90
2897;DHT22;1458;49.728;9.228;2023-02-01T08:30:07;5.30;99.90
2897;DHT22;1458;49.728;9.228;2023-02-01T08:32:35;5.40;99.90
2897;DHT22;1458;49.728;9.228;2023-02-01T08:35:02;5.50;99.90
2897;DHT22;1458;49.728;9.228;2023-02-01T08:37:30;5.60;99.90
2897;DHT22;1458;49.728;9.228;2023-02-01T08:39:59;5.60;99.90
2897;DHT22;1458;49.728;9.228;2023-02-01T08:42:27;5.70;99.90
2897;DHT22;1458;49.728;9.228;2023-02-01T08:45:11;5.80;99.90
2897;DHT22;1458;49.728;9.228;2023-02-01T08:47:39;6.00;99.90
2897;DHT22;1458;49.728;9.228;2023-02-01T08:50:07;6.10;99.90
2897;DHT22;1458;49.728;9.228;2023-02-01T08:52:36;6.00;99.90
2897;DHT22;1458;49.728;9.228;2023-02-01T08:55:05;6.20;99.90
2897;DHT22;1458;49.728;9.228;2023-02-01T08:57:33;6.30;99.90
2897;DHT22;1458;49.728;9.228;2023-02-01T09:00:01;6.50;99.90
2897;DHT22;1458;49.728;9.228;2023-02-01T09:02:31;6.60;99.90
2897;DHT22;1458;49.728;9.228;2023-02-01T09:04:58;6.70;99.90
2897;DHT22;1458;49.728;9.228;2023-02-01T09:07:25;6.70;99.90
2897;DHT22;1458;49.728;9.228;2023-02-01T09:09:53;6.80;99.90
2897;DHT22;1458;49.728;9.228;2023-02-01T09:12:23;6.80;99.90
2897;DHT22;1458;49.728;9.228;2023-02-01T09:14:51;6.80;99.90
2897;DHT22;1458;49.728;9.228;2023-02-01T09:17:18;6.80;99.90
2897;DHT22;1458;49.728;9.228;2023-02-01T09:19:45;6.80;99.90
2897;DHT22;1458;49.728;9.228;2023-02-01T09:22:14;6.70;99.90
2897;DHT22;1458;49.728;9.228;2023-02-01T09:24:42;6.70;99.90
2897;DHT22;1458;49.728;9.228;2023-02-01T09:27:10;6.70;99.90
2897;DHT22;1458;49.728;9.228;2023-02-01T09:29:38;6.90;99.90
2897;DHT22;1458;49.728;9.228;2023-02-01T09:32:06;7.00;99.90
2897;DHT22;1458;49.728;9.228;2023-02-01T09:34:34;7.00;99.90
2897;DHT22;1458;49.728;9.228;2023-02-01T09:37:01;7.00;99.90
2897;DHT22;1458;49.728;9.228;2023-02-01T09:39:29;7.00;99.90
2897;DHT22;1458;49.728;9.228;2023-02-01T09:42:16;7.20;99.90
2897;DHT22;1458;49.728;9.228;2023-02-01T09:47:45;7.30;99.90
2897;DHT22;1458;49.728;9.228;2023-02-01T09:50:16;7.40;99.90
2897;DHT22;1458;49.728;9.228;2023-02-01T09:52:51;7.60;99.90
2897;DHT22;1458;49.728;9.228;2023-02-01T09:55:34;7.60;99.90
2897;DHT22;1458;49.728;9.228;2023-02-01T09:58:07;7.60;99.90
2897;DHT22;1458;49.728;9.228;2023-02-01T10:00:41;7.50;99.90
2897;DHT22;1458;49.728;9.228;2023-02-01T10:03:12;7.40;99.90
2897;DHT22;1458;49.728;9.228;2023-02-01T10:06:03;7.30;99.90
2897;DHT22;1458;49.728;9.228;2023-02-01T10:08:54;7.20;99.90
2897;DHT22;1458;49.728;9.228;2023-02-01T10:11:44;7.20;99.90
2897;DHT22;1458;49.728;9.228;2023-02-01T10:14:39;7.10;99.90
2897;DHT22;1458;49.728;9.228;2023-02-01T10:17:25;7.00;99.90
2897;DHT22;1458;49.728;9.228;2023-02-01T10:20:03;7.00;99.90
2897;DHT22;1458;49.728;9.228;2023-02-01T10:22:40;7.00;99.90
2897;DHT22;1458;49.728;9.228;2023-02-01T10:25:16;7.00;99.90
2897;DHT22;1458;49.728;9.228;2023-02-01T10:27:47;7.10;99.90
2897;DHT22;1458;49.728;9.228;2023-02-01T10:30:20;7.00;99.60
2897;DHT22;1458;49.728;9.228;2023-02-01T10:32:55;7.20;99.70
2897;DHT22;1458;49.728;9.228;2023-02-01T10:35:27;7.10;98.70
2897;DHT22;1458;49.728;9.228;2023-02-01T10:37:58;7.10;98.80
2897;DHT22;1458;49.728;9.228;2023-02-01T10:40:27;7.10;98.80
2897;DHT22;1458;49.728;9.228;2023-02-01T10:42:58;7.20;97.30
2897;DHT22;1458;49.728;9.228;2023-02-01T10:45:29;7.30;97.70
2897;DHT22;1458;49.728;9.228;2023-02-01T10:48:00;7.30;96.90
2897;DHT22;1458;49.728;9.228;2023-02-01T10:50:34;7.40;96.20
2897;DHT22;1458;49.728;9.228;2023-02-01T10:53:10;7.40;94.70
2897;DHT22;1458;49.728;9.228;2023-02-01T10:55:41;7.40;94.30
2897;DHT22;1458;49.728;9.228;2023-02-01T10:58:16;7.30;93.80
2897;DHT22;1458;49.728;9.228;2023-02-01T11:00:48;7.20;93.20
2897;DHT22;1458;49.728;9.228;2023-02-01T11:03:27;7.10;93.40
2897;DHT22;1458;49.728;9.228;2023-02-01T11:05:59;7.00;94.60
2897;DHT22;1458;49.728;9.228;2023-02-01T11:08:28;7.00;94.50
2897;DHT22;1458;49.728;9.228;2023-02-01T11:11:00;7.00;94.90
2897;DHT22;1458;49.728;9.228;2023-02-01T11:13:32;7.10;95.40
2897;DHT22;1458;49.728;9.228;2023-02-01T11:16:05;7.20;95.40
2897;DHT22;1458;49.728;9.228;2023-02-01T11:18:37;7.30;94.80
2897;DHT22;1458;49.728;9.228;2023-02-01T11:21:06;7.50;94.30
2897;DHT22;1458;49.728;9.228;2023-02-01T11:23:40;7.60;94.10
2897;DHT22;1458;49.728;9.228;2023-02-01T11:26:12;7.70;93.60
2897;DHT22;1458;49.728;9.228;2023-02-01T11:28:47;7.80;92.20
2897;DHT22;1458;49.728;9.228;2023-02-01T11:31:19;7.70;91.90
2897;DHT22;1458;49.728;9.228;2023-02-01T11:33:51;7.70;92.10
2897;DHT22;1458;49.728;9.228;2023-02-01T11:36:23;7.80;92.00
2897;DHT22;1458;49.728;9.228;2023-02-01T11:39:07;7.80;90.90
2897;DHT22;1458;49.728;9.228;2023-02-01T11:41:41;7.80;90.90
2897;DHT22;1458;49.728;9.228;2023-02-01T11:44:30;7.80;91.00
2897;DHT22;1458;49.728;9.228;2023-02-01T11:47:22;7.80;90.90
2897;DHT22;1458;49.728;9.228;2023-02-01T11:49:53;7.70;91.70
2897;DHT22;1458;49.728;9.228;2023-02-01T11:52:36;7.70;90.90
2897;DHT22;1458;49.728;9.228;2023-02-01T11:55:23;7.60;91.00
2897;DHT22;1458;49.728;9.228;2023-02-01T11:58:20;7.60;91.90
2897;DHT22;1458;49.728;9.228;2023-02-01T12:01:07;7.50;91.40
2897;DHT22;1458;49.728;9.228;2023-02-01T12:04:15;7.40;91.90
2897;DHT22;1458;49.728;9.228;2023-02-01T12:07:13;7.50;92.50
2897;DHT22;1458;49.728;9.228;2023-02-01T12:09:54;7.50;92.20
2897;DHT22;1458;49.728;9.228;2023-02-01T12:12:36;7.40;91.60
2897;DHT22;1458;49.728;9.228;2023-02-01T12:15:33;7.40;92.50
2897;DHT22;1458;49.728;9.228;2023-02-01T12:18:51;7.30;91.80
2897;DHT22;1458;49.728;9.228;2023-02-01T12:21:39;7.30;91.80
2897;DHT22;1458;49.728;9.228;2023-02-01T12:24:50;7.20;92.90
2897;DHT22;1458;49.728;9.228;2023-02-01T12:27:56;7.20;92.10
2897;DHT22;1458;49.728;9.228;2023-02-01T12:30:53;7.50;91.50
2897;DHT22;1458;49.728;9.228;2023-02-01T12:33:39;7.60;91.90
2897;DHT22;1458;49.728;9.228;2023-02-01T12:36:18;7.80;91.30
2897;DHT22;1458;49.728;9.228;2023-02-01T12:38:57;7.90;90.70
2897;DHT22;1458;49.728;9.228;2023-02-01T12:41:47;7.70;90.90
2897;DHT22;1458;49.728;9.228;2023-02-01T12:44:25;7.70;91.40
2897;DHT22;1458;49.728;9.228;2023-02-01T12:46:59;7.70;89.90
2897;DHT22;1458;49.728;9.228;2023-02-01T12:49:34;7.50;90.80
2897;DHT22;1458;49.728;9.228;2023-02-01T12:52:12;7.50;90.90
2897;DHT22;1458;49.728;9.228;2023-02-01T12:54:45;7.50;91.90
2897;DHT22;1458;49.728;9.228;2023-02-01T12:57:21;7.40;91.60
2897;DHT22;1458;49.728;9.228;2023-02-01T12:59:56;7.60;92.10
2897;DHT22;1458;49.728;9.228;2023-02-01T13:02:35;7.60;91.20
2897;DHT22;1458;49.728;9.228;2023-02-01T13:05:14;7.60;91.90
2897;DHT22;1458;49.728;9.228;2023-02-01T13:07:49;7.50;91.50
2897;DHT22;1458;49.728;9.228;2023-02-01T13:10:22;7.60;90.60
2897;DHT22;1458;49.728;9.228;2023-02-01T13:13:00;7.60;90.30
2897;DHT22;1458;49.728;9.228;2023-02-01T13:15:33;7.60;90.90
2897;DHT22;1458;49.728;9.228;2023-02-01T13:18:06;7.70;90.30
2897;DHT22;1458;49.728;9.228;2023-02-01T13:20:41;7.80;90.80
2897;DHT22;1458;49.728;9.228;2023-02-01T13:23:20;7.80;88.10
2897;DHT22;1458;49.728;9.228;2023-02-01T13:25:51;7.80;90.10
2897;DHT22;1458;49.728;9.228;2023-02-01T13:28:26;7.70;89.20
2897;DHT22;1458;49.728;9.228;2023-02-01T13:31:17;7.70;89.20
2897;DHT22;1458;49.728;9.228;2023-02-01T13:34:30;7.80;88.80
2897;DHT22;1458;49.728;9.228;2023-02-01T13:37:23;7.60;89.20
2897;DHT22;1458;49.728;9.228;2023-02-01T13:40:34;7.50;89.00
2897;DHT22;1458;49.728;9.228;2023-02-01T13:43:09;7.50;89.90
2897;DHT22;1458;49.728;9.228;2023-02-01T13:45:46;7.40;90.20
2897;DHT22;1458;49.728;9.228;2023-02-01T13:48:21;7.40;90.20
2897;DHT22;1458;49.728;9.228;2023-02-01T13:50:55;7.40;90.70
2897;DHT22;1458;49.728;9.228;2023-02-01T13:53:28;7.30;90.20
2897;DHT22;1458;49.728;9.228;2023-02-01T13:55:59;7.30;89.90
2897;DHT22;1458;49.728;9.228;2023-02-01T13:58:33;7.30;89.30
2897;DHT22;1458;49.728;9.228;2023-02-01T14:07:21;7.30;90.00
2897;DHT22;1458;49.728;9.228;2023-02-01T14:09:52;7.30;90.20
2897;DHT22;1458;49.728;9.228;2023-02-01T14:12:48;7.30;90.20
2897;DHT22;1458;49.728;9.228;2023-02-01T14:15:24;7.30;90.00
2897;DHT22;1458;49.728;9.228;2023-02-01T14:17:54;7.10;89.10
2897;DHT22;1458;49.728;9.228;2023-02-01T14:20:43;7.10;88.50
2897;DHT22;1458;49.728;9.228;2023-02-01T14:23:26;7.20;89.60
2897;DHT22;1458;49.728;9.228;2023-02-01T14:26:16;7.20;90.10
2897;DHT22;1458;49.728;9.228;2023-02-01T14:29:01;7.10;88.90
2897;DHT22;1458;49.728;9.228;2023-02-01T14:32:01;7.30;89.50
2897;DHT22;1458;49.728;9.228;2023-02-01T14:34:37;7.30;90.00
2897;DHT22;1458;49.728;9.228;2023-02-01T14:37:11;7.30;88.50
2897;DHT22;1458;49.728;9.228;2023-02-01T14:39:57;7.30;90.20
2897;DHT22;1458;49.728;9.228;2023-02-01T14:42:29;7.20;89.40
2897;DHT22;1458;49.728;9.228;2023-02-01T14:48:55;7.30;88.60
2897;DHT22;1458;49.728;9.228;2023-02-01T14:51:24;7.20;88.40
2897;DHT22;1458;49.728;9.228;2023-02-01T14:53:52;7.30;88.60
2897;DHT22;1458;49.728;9.228;2023-02-01T14:56:19;7.30;90.00
2897;DHT22;1458;49.728;9.228;2023-02-01T14:58:52;7.30;88.40
2897;DHT22;1458;49.728;9.228;2023-02-01T15:01:24;7.20;88.30
2897;DHT22;1458;49.728;9.228;2023-02-01T15:04:00;7.20;88.90
2897;DHT22;1458;49.728;9.228;2023-02-01T15:06:36;7.20;89.30
2897;DHT22;1458;49.728;9.228;2023-02-01T15:09:09;7.20;90.00
2897;DHT22;1458;49.728;9.228;2023-02-01T15:12:00;7.30;89.50
2897;DHT22;1458;49.728;9.228;2023-02-01T15:14:31;7.30;87.80
2897;DHT22;1458;49.728;9.228;2023-02-01T15:16:59;7.20;88.90
2897;DHT22;1458;49.728;9.228;2023-02-01T15:19:29;7.30;88.50
2897;DHT22;1458;49.728;9.228;2023-02-01T15:21:58;7.20;89.40
2897;DHT22;1458;49.728;9.228;2023-02-01T15:24:27;7.30;88.70
2897;DHT22;1458;49.728;9.228;2023-02-01T15:27:03;7.30;88.50
2897;DHT22;1458;49.728;9.228;2023-02-01T15:29:31;7.20;89.40
2897;DHT22;1458;49.728;9.228;2023-02-01T15:32:00;7.20;88.60
2897;DHT22;1458;49.728;9.228;2023-02-01T15:34:45;7.10;89.70
2897;DHT22;1458;49.728;9.228;2023-02-01T15:37:15;7.20;88.00
2897;DHT22;1458;49.728;9.228;2023-02-01T15:40:14;7.10;88.50
2897;DHT22;1458;49.728;9.228;2023-02-01T15:42:51;7.20;88.70
2897;DHT22;1458;49.728;9.228;2023-02-01T15:45:22;7.10;88.80
2897;DHT22;1458;49.728;9.228;2023-02-01T15:47:54;7.20;88.80
2897;DHT22;1458;49.728;9.228;2023-02-01T15:50:22;7.20;87.90
2897;DHT22;1458;49.728;9.228;2023-02-01T15:52:52;7.20;88.00
2897;DHT22;1458;49.728;9.228;2023-02-01T15:55:23;7.10;88.80
2897;DHT22;1458;49.728;9.228;2023-02-01T15:57:56;7.10;89.20
2897;DHT22;1458;49.728;9.228;2023-02-01T16:00:25;7.10;88.40
2897;DHT22;1458;49.728;9.228;2023-02-01T16:02:56;7.10;88.60
2897;DHT22;1458;49.728;9.228;2023-02-01T16:05:30;7.10;88.50
2897;DHT22;1458;49.728;9.228;2023-02-01T16:08:03;7.00;88.50
2897;DHT22;1458;49.728;9.228;2023-02-01T16:10:39;7.00;88.10
2897;DHT22;1458;49.728;9.228;2023-02-01T16:13:11;7.00;89.10
2897;DHT22;1458;49.728;9.228;2023-02-01T16:15:39;7.00;87.90
2897;DHT22;1458;49.728;9.228;2023-02-01T16:18:07;7.10;88.30
2897;DHT22;1458;49.728;9.228;2023-02-01T16:20:35;7.00;88.00
2897;DHT22;1458;49.728;9.228;2023-02-01T16:23:05;6.90;88.20
2897;DHT22;1458;49.728;9.228;2023-02-01T16:25:39;7.00;88.60
2897;DHT22;1458;49.728;9.228;2023-02-01T16:28:07;7.00;88.50
2897;DHT22;1458;49.728;9.228;2023-02-01T16:30:35;7.00;88.30
2897;DHT22;1458;49.728;9.228;2023-02-01T16:33:03;7.00;88.60
2897;DHT22;1458;49.728;9.228;2023-02-01T16:35:33;6.90;88.80
2897;DHT22;1458;49.728;9.228;2023-02-01T16:38:04;7.00;88.80
2897;DHT22;1458;49.728;9.228;2023-02-01T16:40:34;7.00;88.60
2897;DHT22;1458;49.728;9.228;2023-02-01T16:43:04;7.00;88.70
2897;DHT22;1458;49.728;9.228;2023-02-01T16:45:37;7.10;88.60
2897;DHT22;1458;49.728;9.228;2023-02-01T16:48:06;7.00;88.50
2897;DHT22;1458;49.728;9.228;2023-02-01T16:50:34;7.00;88.80
2897;DHT22;1458;49.728;9.228;2023-02-01T16:53:01;7.00;88.50
2897;DHT22;1458;49.728;9.228;2023-02-01T16:55:30;7.00;88.80
2897;DHT22;1458;49.728;9.228;2023-02-01T16:57:57;7.00;88.60
2897;DHT22;1458;49.728;9.228;2023-02-01T17:00:25;7.10;88.70
2897;DHT22;1458;49.728;9.228;2023-02-01T17:02:53;7.10;88.80
2897;DHT22;1458;49.728;9.228;2023-02-01T17:05:20;7.00;89.60
2897;DHT22;1458;49.728;9.228;2023-02-01T17:07:48;7.00;90.10
2897;DHT22;1458;49.728;9.228;2023-02-01T17:10:22;7.00;90.00
2897;DHT22;1458;49.728;9.228;2023-02-01T17:12:54;7.00;89.10
2897;DHT22;1458;49.728;9.228;2023-02-01T17:15:22;7.10;89.60
2897;DHT22;1458;49.728;9.228;2023-02-01T17:17:50;7.10;90.10
2897;DHT22;1458;49.728;9.228;2023-02-01T17:20:21;7.10;90.00
2897;DHT22;1458;49.728;9.228;2023-02-01T17:22:50;7.00;90.30
2897;DHT22;1458;49.728;9.228;2023-02-01T17:25:21;7.10;90.00
2897;DHT22;1458;49.728;9.228;2023-02-01T17:27:48;7.00;90.10
2897;DHT22;1458;49.728;9.228;2023-02-01T17:30:18;7.10;90.10
2897;DHT22;1458;49.728;9.228;2023-02-01T17:32:45;7.10;89.50
2897;DHT22;1458;49.728;9.228;2023-02-01T17:35:20;7.10;89.00
2897;DHT22;1458;49.728;9.228;2023-02-01T17:37:49;7.10;90.00
2897;DHT22;1458;49.728;9.228;2023-02-01T17:40:17;7.10;89.60
2897;DHT22;1458;49.728;9.228;2023-02-01T17:42:45;7.10;89.50